createdAt,value
2019-04-27T00:00:17.426Z,69.40
2019-04-27T00:02:50.534Z,69.30
2019-04-27T00:05:36.867Z,69.30
2019-04-27T00:08:13.844Z,69.50
2019-04-27T00:10:59.793Z,69.00
2019-04-27T00:13:29.372Z,69.50
2019-04-27T00:15:59.300Z,69.80
2019-04-27T00:18:29.373Z,70.30
2019-04-27T00:21:03.577Z,70.00
2019-04-27T00:23:33.991Z,69.80
2019-04-27T00:26:03.665Z,69.30
2019-04-27T00:28:33.179Z,69.40
2019-04-27T00:31:03.180Z,69.20
2019-04-27T00:33:31.753Z,69.40
2019-04-27T00:36:03.049Z,69.60
2019-04-27T00:38:33.470Z,69.30
2019-04-27T00:41:09.449Z,69.50
2019-04-27T00:43:37.736Z,69.60
2019-04-27T00:46:06.060Z,69.90
2019-04-27T00:48:34.507Z,70.10
2019-04-27T00:51:04.299Z,70.30
2019-04-27T00:53:33.495Z,70.40
2019-04-27T00:56:06.604Z,70.70
2019-04-27T00:58:53.614Z,70.50
2019-04-27T01:01:43.490Z,70.50
2019-04-27T01:04:25.538Z,70.90
2019-04-27T01:06:53.988Z,70.90
2019-04-27T01:09:23.658Z,71.20
2019-04-27T01:11:53.452Z,70.90
2019-04-27T01:14:23.064Z,70.80
2019-04-27T01:16:51.616Z,70.20
2019-04-27T01:19:19.997Z,70.50
2019-04-27T01:21:49.682Z,70.20
2019-04-27T01:24:18.936Z,70.40
2019-04-27T01:27:05.452Z,70.80
2019-04-27T01:29:35.490Z,71.40
2019-04-27T01:32:05.246Z,71.60
2019-04-27T01:34:33.661Z,71.30
2019-04-27T01:37:02.142Z,70.60
2019-04-27T01:39:30.505Z,71.50
2019-04-27T01:41:59.133Z,70.00
2019-04-27T01:44:29.371Z,69.80
2019-04-27T01:46:57.702Z,69.70
2019-04-27T01:49:26.133Z,69.80
2019-04-27T01:51:54.585Z,70.00
2019-04-27T01:54:24.576Z,70.10
2019-04-27T01:56:52.970Z,69.90
2019-04-27T01:59:21.407Z,70.20
2019-04-27T02:01:51.392Z,70.50
2019-04-27T02:04:24.490Z,70.90
2019-04-27T02:06:58.991Z,71.00
2019-04-27T02:09:28.895Z,71.00
2019-04-27T02:11:59.077Z,71.00
2019-04-27T02:14:28.808Z,70.70
2019-04-27T02:16:59.544Z,70.90
2019-04-27T02:19:29.234Z,71.20
2019-04-27T02:21:59.746Z,70.80
2019-04-27T02:24:28.809Z,70.70
2019-04-27T02:26:58.792Z,70.30
2019-04-27T02:29:29.124Z,70.30
2019-04-27T02:32:10.426Z,70.70
2019-04-27T02:34:50.471Z,70.70
2019-04-27T02:37:19.972Z,71.30
2019-04-27T02:39:50.042Z,70.50
2019-04-27T02:42:20.088Z,70.90
2019-04-27T02:44:49.433Z,70.90
2019-04-27T02:47:20.512Z,71.10
2019-04-27T02:49:50.721Z,70.80
2019-04-27T02:52:20.153Z,71.20
2019-04-27T02:54:50.585Z,72.10
2019-04-27T02:57:19.844Z,71.30
2019-04-27T02:59:50.397Z,71.60
2019-04-27T03:02:26.293Z,72.10
2019-04-27T03:04:54.645Z,72.50
2019-04-27T03:07:23.097Z,72.90
2019-04-27T03:09:51.572Z,73.10
2019-04-27T03:12:21.630Z,73.40
2019-04-27T03:14:57.389Z,73.00
2019-04-27T03:17:27.418Z,73.10
2019-04-27T03:20:00.021Z,73.50
2019-04-27T03:22:30.075Z,74.00
2019-04-27T03:25:00.353Z,74.20
2019-04-27T03:27:33.208Z,74.30
2019-04-27T03:30:01.613Z,74.20
2019-04-27T03:32:31.409Z,74.30
2019-04-27T03:35:02.573Z,74.10
2019-04-27T03:37:30.416Z,74.10
2019-04-27T03:40:00.166Z,74.30
2019-04-27T03:42:29.324Z,74.60
2019-04-27T03:45:00.381Z,75.00
2019-04-27T03:47:30.680Z,75.20
2019-04-27T03:49:59.854Z,75.20
2019-04-27T03:52:35.378Z,75.70
2019-04-27T03:55:11.414Z,75.90
2019-04-27T03:57:49.696Z,76.10
2019-04-27T04:00:20.100Z,76.10
2019-04-27T04:02:50.208Z,76.10
2019-04-27T04:05:19.814Z,76.70
2019-04-27T04:07:50.409Z,77.10
2019-04-27T04:10:19.797Z,77.20
2019-04-27T04:12:50.150Z,77.30
2019-04-27T04:15:35.743Z,77.50
2019-04-27T04:18:04.282Z,77.50
2019-04-27T04:20:32.632Z,77.40
2019-04-27T04:23:03.322Z,77.50
2019-04-27T04:25:33.088Z,77.60
2019-04-27T04:28:01.183Z,77.30
2019-04-27T04:30:30.449Z,77.60
2019-04-27T04:32:59.907Z,77.50
2019-04-27T04:35:32.573Z,77.50
2019-04-27T04:38:00.210Z,77.70
2019-04-27T04:40:33.161Z,78.00
2019-04-27T04:43:03.549Z,78.40
2019-04-27T04:45:34.270Z,78.80
2019-04-27T04:48:04.402Z,78.80
2019-04-27T04:50:32.730Z,78.90
2019-04-27T04:53:01.186Z,78.30
2019-04-27T04:55:30.637Z,78.20
2019-04-27T04:57:59.276Z,78.40
2019-04-27T05:00:29.645Z,78.60
2019-04-27T05:02:59.368Z,78.80
2019-04-27T05:05:29.144Z,78.60
2019-04-27T05:08:00.388Z,79.00
2019-04-27T05:10:28.832Z,78.20
2019-04-27T05:12:59.058Z,78.20
2019-04-27T05:15:29.190Z,78.20
2019-04-27T05:17:59.106Z,78.30
2019-04-27T05:20:29.524Z,77.80
2019-04-27T05:22:59.363Z,77.20
2019-04-27T05:25:28.674Z,77.50
2019-04-27T05:27:57.255Z,77.20
2019-04-27T05:30:25.646Z,76.90
2019-04-27T05:32:54.017Z,77.40
2019-04-27T05:35:22.451Z,77.50
2019-04-27T05:37:50.806Z,77.50
2019-04-27T05:40:19.257Z,77.40
2019-04-27T05:42:50.597Z,77.50
2019-04-27T05:45:34.054Z,77.10
2019-04-27T05:48:07.257Z,77.10
2019-04-27T05:50:41.271Z,77.00
2019-04-27T05:53:06.598Z,77.00
2019-04-27T05:55:34.919Z,77.00
2019-04-27T05:58:03.276Z,76.70
2019-04-27T06:00:31.754Z,77.20
2019-04-27T06:03:00.114Z,77.10
2019-04-27T06:05:29.218Z,77.80
2019-04-27T06:07:58.896Z,77.80
2019-04-27T06:10:27.402Z,78.10
2019-04-27T06:12:55.778Z,77.70
2019-04-27T06:15:24.184Z,78.00
2019-04-27T06:17:52.526Z,78.10
2019-04-27T06:20:20.873Z,78.30
2019-04-27T06:22:49.380Z,78.30
2019-04-27T06:25:21.137Z,77.70
2019-04-27T06:27:49.538Z,77.10
2019-04-27T06:30:19.257Z,76.90
2019-04-27T06:32:49.354Z,76.50
2019-04-27T06:35:18.644Z,76.90
2019-04-27T06:37:47.104Z,77.60
2019-04-27T06:40:15.457Z,78.00
2019-04-27T06:42:43.777Z,77.80
2019-04-27T06:45:12.282Z,78.40
2019-04-27T06:47:41.470Z,78.10
2019-04-27T06:50:10.040Z,77.60
2019-04-27T06:52:39.010Z,77.10
2019-04-27T06:55:09.217Z,77.10
2019-04-27T06:57:39.111Z,76.30
2019-04-27T07:00:09.090Z,77.40
2019-04-27T07:02:39.240Z,77.60
2019-04-27T07:05:08.936Z,78.20
2019-04-27T07:07:39.328Z,78.00
2019-04-27T07:10:08.672Z,76.20
2019-04-27T07:12:38.725Z,76.30
2019-04-27T07:15:08.774Z,75.60
2019-04-27T07:17:38.885Z,73.50
2019-04-27T07:20:08.913Z,74.20
2019-04-27T07:22:37.525Z,71.80
2019-04-27T07:25:06.526Z,72.30
2019-04-27T07:27:34.884Z,71.10
2019-04-27T07:30:06.301Z,70.70
2019-04-27T07:32:34.641Z,72.00
2019-04-27T07:35:03.098Z,71.10
2019-04-27T07:37:31.586Z,70.50
2019-04-27T07:40:00.020Z,70.90
2019-04-27T07:42:30.313Z,70.40
2019-04-27T07:45:00.156Z,69.20
2019-04-27T07:47:31.099Z,69.70
2019-04-27T07:50:01.349Z,69.50
2019-04-27T07:52:29.775Z,68.80
2019-04-27T07:54:58.753Z,67.00
2019-04-27T07:57:28.833Z,65.90
2019-04-27T07:59:59.486Z,67.00
2019-04-27T08:02:29.094Z,66.10
2019-04-27T08:04:59.445Z,65.20
2019-04-27T08:07:29.143Z,65.40
2019-04-27T08:10:01.082Z,63.80
2019-04-27T08:12:28.936Z,61.70
2019-04-27T08:14:57.313Z,61.10
2019-04-27T08:17:25.720Z,62.30
2019-04-27T08:19:54.203Z,62.40
2019-04-27T08:22:22.606Z,61.20
2019-04-27T08:24:50.986Z,60.30
2019-04-27T08:27:26.909Z,60.00
2019-04-27T08:30:15.318Z,60.40
2019-04-27T08:32:45.448Z,59.80
2019-04-27T08:35:13.813Z,59.20
2019-04-27T08:37:42.141Z,59.40
2019-04-27T08:40:10.666Z,59.90
2019-04-27T08:42:39.254Z,61.10
2019-04-27T08:45:09.385Z,61.10
2019-04-27T08:47:39.434Z,59.50
2019-04-27T08:50:09.142Z,58.20
2019-04-27T08:52:41.512Z,57.90
2019-04-27T08:55:09.406Z,55.70
2019-04-27T08:57:38.769Z,54.50
2019-04-27T09:00:10.864Z,55.40
2019-04-27T09:02:44.813Z,55.50
2019-04-27T09:05:09.596Z,53.30
2019-04-27T09:07:42.506Z,52.50
2019-04-27T09:10:18.840Z,51.20
2019-04-27T09:12:50.084Z,50.30
2019-04-27T09:15:23.758Z,50.60
2019-04-27T09:17:53.791Z,49.20
2019-04-27T09:20:42.008Z,48.10
2019-04-27T09:23:10.343Z,47.90
2019-04-27T09:25:39.629Z,48.50
2019-04-27T09:28:08.741Z,48.90
2019-04-27T09:30:39.117Z,49.40
2019-04-27T09:33:07.526Z,48.40
2019-04-27T09:35:35.932Z,48.40
2019-04-27T09:38:04.289Z,46.50
2019-04-27T09:40:33.371Z,45.50
2019-04-27T09:43:01.734Z,44.30
2019-04-27T09:45:30.121Z,42.50
2019-04-27T09:47:58.545Z,41.40
2019-04-27T09:50:28.247Z,41.20
2019-04-27T09:52:56.948Z,41.40
2019-04-27T09:55:26.285Z,41.60
2019-04-27T09:57:56.770Z,40.10
2019-04-27T10:00:25.156Z,38.80
2019-04-27T10:02:53.540Z,38.20
2019-04-27T10:05:21.965Z,38.50
2019-04-27T10:07:50.292Z,38.90
2019-04-27T10:10:19.061Z,39.90
2019-04-27T10:12:47.533Z,40.70
2019-04-27T10:15:16.342Z,40.40
2019-04-27T10:17:44.733Z,40.40
2019-04-27T10:20:13.085Z,36.10
2019-04-27T10:22:43.633Z,36.50
2019-04-27T10:25:13.242Z,37.70
2019-04-27T10:27:43.227Z,37.40
2019-04-27T10:30:11.521Z,38.00
2019-04-27T10:32:42.736Z,38.00
2019-04-27T10:35:09.994Z,36.10
2019-04-27T10:37:38.493Z,36.20
2019-04-27T10:40:07.989Z,37.00
2019-04-27T10:42:36.391Z,37.70
2019-04-27T10:45:07.583Z,38.90
2019-04-27T10:47:36.138Z,39.50
2019-04-27T10:50:06.689Z,39.60
2019-04-27T10:52:35.989Z,39.50
2019-04-27T10:55:06.017Z,39.50
2019-04-27T10:57:34.474Z,39.10
2019-04-27T11:00:03.597Z,37.80
2019-04-27T11:02:32.116Z,37.90
2019-04-27T11:05:21.280Z,36.80
2019-04-27T11:07:50.006Z,37.30
2019-04-27T11:10:18.325Z,36.80
2019-04-27T11:12:46.717Z,37.00
2019-04-27T11:15:16.336Z,35.90
2019-04-27T11:17:47.309Z,34.50
2019-04-27T11:20:15.723Z,32.90
2019-04-27T11:22:44.108Z,31.40
2019-04-27T11:25:12.505Z,30.80
2019-04-27T11:27:40.854Z,31.00
2019-04-27T11:30:09.397Z,31.20
2019-04-27T11:32:37.758Z,30.00
2019-04-27T11:35:20.549Z,29.20
2019-04-27T11:37:50.840Z,29.70
2019-04-27T11:40:20.412Z,30.10
2019-04-27T11:42:48.881Z,29.00
2019-04-27T11:45:17.337Z,28.90
2019-04-27T11:47:45.705Z,28.60
2019-04-27T11:50:14.221Z,27.70
2019-04-27T11:52:42.623Z,28.20
2019-04-27T11:55:10.974Z,29.20
2019-04-27T11:57:39.399Z,29.70
2019-04-27T12:00:09.926Z,30.00
2019-04-27T12:02:38.365Z,30.00
2019-04-27T12:05:07.972Z,29.50
2019-04-27T12:07:36.394Z,28.50
2019-04-27T12:10:05.777Z,28.30
2019-04-27T12:12:36.226Z,30.20
2019-04-27T12:15:06.131Z,30.10
2019-04-27T12:17:35.869Z,31.70
2019-04-27T12:20:07.677Z,31.10
2019-04-27T12:22:36.072Z,30.20
2019-04-27T12:25:06.504Z,29.60
2019-04-27T12:27:36.930Z,29.30
2019-04-27T12:30:20.801Z,28.40
2019-04-27T12:32:49.353Z,28.10
2019-04-27T12:35:17.750Z,28.50
2019-04-27T12:37:46.112Z,28.60
2019-04-27T12:40:16.552Z,28.20
2019-04-27T12:42:44.679Z,27.70
2019-04-27T12:45:13.025Z,27.20
2019-04-27T12:47:41.387Z,26.90
2019-04-27T12:50:11.936Z,26.00
2019-04-27T12:52:41.659Z,25.70
2019-04-27T12:55:28.144Z,25.20
2019-04-27T12:57:58.186Z,24.80
2019-04-27T13:00:43.519Z,24.80
2019-04-27T13:03:12.030Z,24.80
2019-04-27T13:05:40.510Z,24.50
2019-04-27T13:08:08.893Z,24.00
2019-04-27T13:10:37.272Z,24.30
2019-04-27T13:13:06.305Z,24.70
2019-04-27T13:15:46.793Z,23.40
2019-04-27T13:18:16.691Z,23.00
2019-04-27T13:20:45.234Z,23.00
2019-04-27T13:23:13.533Z,21.70
2019-04-27T13:25:42.138Z,21.60
2019-04-27T13:28:10.530Z,21.70
2019-04-27T13:30:38.924Z,21.20
2019-04-27T13:33:07.452Z,21.20
2019-04-27T13:35:35.843Z,20.40
2019-04-27T13:38:04.299Z,20.10
2019-04-27T13:40:35.708Z,20.90
2019-04-27T13:43:16.598Z,20.40
2019-04-27T13:45:52.455Z,20.50
2019-04-27T13:48:22.568Z,20.20
2019-04-27T13:50:52.611Z,20.20
2019-04-27T13:53:21.024Z,20.40
2019-04-27T13:55:49.304Z,19.60
2019-04-27T13:58:18.687Z,20.00
2019-04-27T14:00:47.049Z,20.00
2019-04-27T14:03:16.789Z,19.30
2019-04-27T14:05:45.356Z,19.60
2019-04-27T14:08:13.709Z,19.20
2019-04-27T14:10:41.990Z,19.40
2019-04-27T14:13:11.077Z,19.10
2019-04-27T14:15:39.594Z,19.60
2019-04-27T14:18:08.483Z,19.60
2019-04-27T14:20:38.804Z,20.00
2019-04-27T14:23:18.813Z,20.00
2019-04-27T14:25:47.236Z,19.70
2019-04-27T14:28:15.574Z,19.90
2019-04-27T14:30:44.015Z,19.80
2019-04-27T14:33:12.418Z,20.20
2019-04-27T14:35:40.803Z,19.70
2019-04-27T14:38:09.278Z,20.20
2019-04-27T14:40:39.241Z,20.10
2019-04-27T14:43:08.501Z,20.80
2019-04-27T14:45:38.281Z,20.60
2019-04-27T14:48:08.282Z,21.30
2019-04-27T14:50:40.430Z,21.40
2019-04-27T14:53:08.899Z,20.90
2019-04-27T14:55:38.790Z,21.20
2019-04-27T14:58:08.773Z,21.00
2019-04-27T15:00:38.478Z,21.40
2019-04-27T15:03:07.000Z,21.30
2019-04-27T15:05:35.343Z,21.50
2019-04-27T15:08:16.309Z,20.90
2019-04-27T15:10:46.448Z,20.80
2019-04-27T15:13:14.946Z,21.00
2019-04-27T15:15:43.292Z,20.60
2019-04-27T15:18:11.734Z,20.90
2019-04-27T15:20:46.460Z,20.80
2019-04-27T15:23:14.533Z,20.60
2019-04-27T15:25:46.809Z,20.90
2019-04-27T15:28:15.324Z,21.40
2019-04-27T15:31:00.826Z,21.20
2019-04-27T15:33:53.324Z,22.00
2019-04-27T15:36:37.403Z,22.40
2019-04-27T15:39:12.268Z,22.30
2019-04-27T15:41:51.262Z,22.50
2019-04-27T15:44:19.712Z,22.70
2019-04-27T15:46:48.078Z,23.60
2019-04-27T15:49:17.943Z,22.60
2019-04-27T15:51:46.545Z,23.40
2019-04-27T15:54:14.935Z,23.70
2019-04-27T15:56:43.387Z,23.10
2019-04-27T15:59:11.742Z,22.70
2019-04-27T16:01:40.066Z,23.30
2019-04-27T16:04:11.196Z,23.60
2019-04-27T16:06:42.430Z,23.80
2019-04-27T16:09:10.344Z,23.90
2019-04-27T16:11:38.635Z,23.80
2019-04-27T16:14:07.874Z,24.00
2019-04-27T16:16:38.180Z,24.20
2019-04-27T16:19:08.863Z,24.40
2019-04-27T16:21:39.829Z,24.40
2019-04-27T16:24:08.364Z,24.50
2019-04-27T16:26:38.611Z,24.70
2019-04-27T16:29:08.232Z,24.70
2019-04-27T16:31:38.503Z,24.70
2019-04-27T16:34:08.356Z,24.40
2019-04-27T16:36:37.858Z,24.80
2019-04-27T16:39:09.909Z,25.40
2019-04-27T16:41:38.881Z,25.20
2019-04-27T16:44:10.741Z,25.40
2019-04-27T16:46:41.605Z,25.60
2019-04-27T16:49:14.045Z,26.00
2019-04-27T16:51:40.357Z,26.10
2019-04-27T16:54:12.983Z,26.10
2019-04-27T16:56:38.977Z,26.70
2019-04-27T16:59:34.037Z,26.60
2019-04-27T17:01:40.097Z,27.30
2019-04-27T17:04:11.272Z,27.00
2019-04-27T17:06:40.786Z,26.80
2019-04-27T17:09:11.416Z,27.10
2019-04-27T17:11:38.787Z,27.50
2019-04-27T17:14:14.737Z,27.40
2019-04-27T17:16:50.622Z,27.30
2019-04-27T17:19:35.891Z,27.10
2019-04-27T17:22:03.347Z,26.80
2019-04-27T17:24:37.578Z,27.10
2019-04-27T17:27:03.488Z,27.00
2019-04-27T17:29:33.573Z,27.00
2019-04-27T17:32:02.335Z,26.90
2019-04-27T17:34:30.734Z,26.60
2019-04-27T17:36:59.193Z,26.50
2019-04-27T17:39:29.571Z,27.00
2019-04-27T17:41:58.562Z,27.40
2019-04-27T17:44:28.809Z,27.60
2019-04-27T17:46:57.422Z,27.60
2019-04-27T17:49:25.806Z,27.70
2019-04-27T17:51:54.255Z,27.80
2019-04-27T17:54:22.603Z,27.80
2019-04-27T17:56:52.449Z,27.60
2019-04-27T17:59:21.208Z,27.50
2019-04-27T18:01:49.769Z,27.80
2019-04-27T18:04:18.614Z,28.30
2019-04-27T18:06:48.343Z,28.80
2019-04-27T18:09:18.759Z,29.20
2019-04-27T18:11:48.648Z,29.40
2019-04-27T18:14:19.048Z,29.70
2019-04-27T18:16:48.235Z,29.80
2019-04-27T18:19:18.511Z,30.00
2019-04-27T18:21:48.618Z,30.00
2019-04-27T18:24:18.647Z,30.80
2019-04-27T18:27:04.260Z,30.60
2019-04-27T18:29:31.290Z,31.00
2019-04-27T18:31:59.671Z,31.60
2019-04-27T18:34:28.685Z,31.80
2019-04-27T18:36:57.477Z,31.90
2019-04-27T18:39:25.838Z,32.00
2019-04-27T18:41:54.527Z,31.10
2019-04-27T18:44:23.831Z,31.20
2019-04-27T18:46:53.716Z,31.30
2019-04-27T18:49:27.202Z,31.30
2019-04-27T18:51:58.158Z,31.30
2019-04-27T18:54:26.656Z,31.10
2019-04-27T18:57:02.026Z,31.00
2019-04-27T18:59:25.345Z,30.80
2019-04-27T19:01:54.061Z,30.90
2019-04-27T19:04:22.876Z,30.80
2019-04-27T19:06:51.495Z,30.90
2019-04-27T19:09:20.120Z,31.10
2019-04-27T19:11:56.164Z,31.10
2019-04-27T19:14:19.032Z,31.20
2019-04-27T19:16:48.419Z,31.20
2019-04-27T19:19:18.810Z,31.00
2019-04-27T19:21:48.594Z,30.90
2019-04-27T19:24:19.127Z,30.70
2019-04-27T19:26:49.127Z,30.70
2019-04-27T19:29:22.108Z,31.20
2019-04-27T19:31:55.220Z,30.60
2019-04-27T19:34:29.825Z,30.60
2019-04-27T19:36:59.257Z,30.60
2019-04-27T19:39:28.586Z,30.50
2019-04-27T19:42:01.467Z,30.40
2019-04-27T19:44:29.222Z,30.40
2019-04-27T19:46:59.970Z,30.20
2019-04-27T19:49:31.277Z,30.10
2019-04-27T19:51:58.858Z,30.10
2019-04-27T19:54:28.331Z,30.20
2019-04-27T19:56:59.532Z,30.20
2019-04-27T19:59:29.628Z,30.00
2019-04-27T20:01:59.692Z,30.10
2019-04-27T20:04:32.943Z,30.20
2019-04-27T20:07:01.559Z,30.00
2019-04-27T20:09:47.802Z,29.80
2019-04-27T20:12:17.575Z,29.90
2019-04-27T20:14:58.524Z,30.00
2019-04-27T20:17:28.288Z,30.10
2019-04-27T20:19:56.885Z,30.10
2019-04-27T20:22:25.956Z,30.60
2019-04-27T20:24:54.323Z,30.00
2019-04-27T20:27:22.877Z,30.20
2019-04-27T20:29:51.230Z,30.20
2019-04-27T20:32:21.533Z,30.40
2019-04-27T20:34:51.306Z,30.30
2019-04-27T20:37:20.999Z,30.50
2019-04-27T20:39:51.244Z,30.70
2019-04-27T20:42:21.116Z,30.70
2019-04-27T20:44:51.421Z,30.90
2019-04-27T20:47:19.834Z,31.00
2019-04-27T20:49:48.208Z,31.10
2019-04-27T20:52:18.159Z,31.20
2019-04-27T20:54:46.557Z,31.20
2019-04-27T20:57:16.037Z,31.30
2019-04-27T20:59:44.315Z,31.40
2019-04-27T21:02:32.143Z,31.50
2019-04-27T21:05:17.585Z,31.70
2019-04-27T21:07:47.795Z,31.80
2019-04-27T21:10:16.169Z,32.10
2019-04-27T21:12:44.537Z,31.60
2019-04-27T21:15:13.098Z,31.70
2019-04-27T21:17:42.548Z,31.60
2019-04-27T21:20:11.398Z,31.80
2019-04-27T21:22:41.764Z,31.90
2019-04-27T21:25:11.842Z,31.80
2019-04-27T21:27:41.118Z,31.80
2019-04-27T21:30:11.217Z,31.70
2019-04-27T21:32:39.861Z,31.80
2019-04-27T21:35:10.876Z,31.70
2019-04-27T21:37:40.878Z,31.60
2019-04-27T21:40:21.289Z,31.60
2019-04-27T21:42:51.168Z,31.60
2019-04-27T21:45:21.576Z,31.60
2019-04-27T21:47:51.750Z,31.50
2019-04-27T21:50:20.594Z,31.40
2019-04-27T21:53:08.566Z,31.20
2019-04-27T21:55:38.511Z,31.20
2019-04-27T21:58:06.901Z,31.30
2019-04-27T22:00:42.758Z,31.40
2019-04-27T22:03:12.191Z,31.30
2019-04-27T22:05:41.671Z,31.60
2019-04-27T22:08:11.791Z,31.80
2019-04-27T22:10:40.710Z,32.00
2019-04-27T22:13:09.099Z,32.00
2019-04-27T22:15:37.499Z,32.20
2019-04-27T22:18:05.927Z,32.20
2019-04-27T22:20:35.063Z,32.40
2019-04-27T22:23:23.536Z,32.50
2019-04-27T22:25:54.402Z,33.10
2019-04-27T22:28:22.112Z,33.00
2019-04-27T22:30:50.540Z,33.10
2019-04-27T22:33:18.832Z,33.90
2019-04-27T22:35:47.330Z,33.70
2019-04-27T22:38:15.657Z,34.10
2019-04-27T22:40:51.964Z,34.70
2019-04-27T22:43:38.494Z,35.10
2019-04-27T22:46:08.641Z,35.40
2019-04-27T22:48:37.049Z,35.70
2019-04-27T22:51:05.458Z,35.70
2019-04-27T22:53:33.869Z,35.80
2019-04-27T22:56:13.499Z,35.80
2019-04-27T22:58:43.759Z,36.00
2019-04-27T23:01:13.785Z,36.40
2019-04-27T23:03:44.845Z,37.00
2019-04-27T23:06:13.196Z,37.90
2019-04-27T23:08:41.591Z,38.30
2019-04-27T23:11:10.886Z,38.70
2019-04-27T23:13:39.344Z,39.20
2019-04-27T23:16:09.325Z,39.40
2019-04-27T23:18:37.667Z,39.60
2019-04-27T23:21:06.060Z,40.00
2019-04-27T23:23:35.551Z,40.30
2019-04-27T23:26:03.870Z,40.70
2019-04-27T23:28:32.268Z,41.10
2019-04-27T23:31:05.476Z,41.50
2019-04-27T23:33:33.814Z,42.50
2019-04-27T23:36:02.151Z,42.40
2019-04-27T23:38:31.003Z,42.60
2019-04-27T23:40:59.374Z,42.80
2019-04-27T23:43:27.821Z,42.90
2019-04-27T23:45:57.372Z,43.30
2019-04-27T23:48:25.727Z,43.70
2019-04-27T23:50:55.711Z,43.80
2019-04-27T23:53:25.911Z,44.00
2019-04-27T23:55:54.331Z,44.40
2019-04-27T23:58:22.616Z,44.60
